Shelby, North Carolina
Current Conditions -  °F | °C
As of 2:35 PM on Saturday 25 Oct 2014 (Local Time) from KEHO Reporting Station
Clear Clear  
Wind Chill: 71°   Ceiling: Unl
Heat Index: 71°   Visibility: 10mi
Dew Point: 35°   Wind: 5mph
Humidity: 26%   Direction: 240°WSW
Pressure: 29.98"   Gusts: NA
Location:  35.29°N, 81.54°W
Report Text: KEHO 251835Z AUTO 24004KT 10SM CLR 22/01 A2998 RMK AO2 T02170014
Loading
Personal Weather Stations






























Interactive Weather Map
Tropical Storm Tracking
New forecast layout! Learn more

10-Day Weather Forecast

Advertisements
Track Severe Weather on mobile